Saint Louis, Missouri
Traffic Map
Current Weather Conditions
Saint Louis, Missouri
Clear
Clear
58°
Feels Like: 58°
Wind Chill: 58° Ceiling: Unl
Heat Index: 58° Visibility: 10mi
Dew Point: 42° Wind: 5mph
Humidity: 56% Direction: 150° (SSE)
Pressure: 30.17in Gusts: 0mph
Raw Report DataKCPS 200553Z AUTO 15004KT 10SM CLR 14/06 A3017 RMK AO2 SLP214 T01440056 10217 20139 402390067 58002
Traffic Incident Summary
Active as of:
Severity:
Category:
InformationThere was an issue retrieving the traffic information for this location. Please try a different location or try again shortly.
Advertisements
At Last! Intellicast now available for iPhone and Android